Time;durP1;ratioP1;P1;durP2;ratioP2;P2;SDS_P1;SDS_P2;PMS_P1;PMS_P2;Temp;Humidity;BMP_temperature;BMP_pressure;BME280_temperature;BME280_humidity;BME280_pressure;Samples;Min_cycle;Max_cycle;Signal;HPM_P1;HPM_P2
2022/04/16 00:01:38;;;;;;;3.30;2.80;;;;;;;11.98;69.71;99101.63;4138842;28;20635;-84
2022/04/16 00:03:42;;;;;;;3.77;3.20;;;;;;;11.97;71.57;99099.91;4104973;28;20633;-83
2022/04/16 00:05:46;;;;;;;3.40;3.10;;;;;;;11.96;70.03;99103.44;4137379;28;21237;-83
2022/04/16 00:08:06;;;;;;;3.80;3.03;;;;;;;11.94;69.82;99102.72;4120842;28;20739;-83
2022/04/16 00:10:12;;;;;;;3.37;2.73;;;;;;;11.94;70.85;99097.47;4138500;28;20651;-84
2022/04/16 00:12:16;;;;;;;3.83;2.80;;;;;;;11.97;70.67;99096.47;4123801;28;20642;-83
2022/04/16 00:14:19;;;;;;;3.30;2.93;;;;;;;11.95;71.30;99096.56;4142856;28;20643;-83
2022/04/16 00:16:23;;;;;;;4.57;3.20;;;;;;;11.90;69.73;99105.59;4139697;28;20726;-83
2022/04/16 00:18:27;;;;;;;3.60;2.93;;;;;;;11.87;70.81;99098.75;4105246;28;20699;-83
2022/04/16 00:20:31;;;;;;;4.03;2.70;;;;;;;11.83;70.96;99092.03;4123527;28;20640;-83
2022/04/16 00:22:35;;;;;;;3.90;3.03;;;;;;;11.86;71.24;99094.47;4105063;28;20671;-83
2022/04/16 00:24:40;;;;;;;3.80;2.97;;;;;;;11.82;70.49;99089.50;4122670;28;20988;-84
2022/04/16 00:26:46;;;;;;;3.27;2.90;;;;;;;11.72;71.62;99092.72;4120465;28;20728;-85
2022/04/16 00:28:57;;;;;;;3.90;2.90;;;;;;;11.64;72.43;99090.56;4121869;28;20693;-86
2022/04/16 00:31:01;;;;;;;3.47;2.90;;;;;;;11.58;72.22;99084.84;4122567;28;20731;-86
2022/04/16 00:33:05;;;;;;;3.57;3.10;;;;;;;11.54;72.08;99083.31;4121619;28;20628;-86
2022/04/16 00:35:09;;;;;;;4.90;3.10;;;;;;;11.46;71.98;99086.31;4120180;28;21431;-86
2022/04/16 00:37:12;;;;;;;3.87;2.73;;;;;;;11.41;71.90;99093.59;4121821;28;20644;-86
2022/04/16 00:39:16;;;;;;;3.30;2.67;;;;;;;11.37;71.77;99091.22;4122454;28;20629;-86
2022/04/16 00:41:22;;;;;;;3.67;3.10;;;;;;;11.29;72.33;99088.22;4124763;28;21190;-86
2022/04/16 00:43:27;;;;;;;3.13;2.57;;;;;;;11.23;72.58;99093.75;4123027;28;20685;-86
2022/04/16 00:45:31;;;;;;;3.70;2.80;;;;;;;11.20;73.21;99091.31;4105854;28;20657;-86
2022/04/16 00:47:36;;;;;;;3.90;2.70;;;;;;;11.16;72.70;99089.78;4126089;28;21326;-86
2022/04/16 00:49:39;;;;;;;3.40;2.70;;;;;;;11.18;73.42;99090.53;4137313;28;20686;-86
2022/04/16 00:51:46;;;;;;;3.90;3.20;;;;;;;11.13;73.52;99092.56;4120059;28;20642;-86
2022/04/16 00:53:50;;;;;;;3.30;2.60;;;;;;;11.11;73.45;99089.22;4135728;28;20654;-86
2022/04/16 00:55:54;;;;;;;3.27;2.50;;;;;;;11.10;73.37;99092.72;4119905;28;20632;-85
2022/04/16 00:57:59;;;;;;;3.23;2.50;;;;;;;11.09;73.95;99085.81;4135848;28;20752;-86
2022/04/16 01:00:03;;;;;;;4.03;2.93;;;;;;;11.08;73.58;99089.38;4120632;28;20689;-86
2022/04/16 01:02:08;;;;;;;4.33;2.93;;;;;;;11.02;74.63;99084.50;4122898;28;20654;-86
2022/04/16 01:04:11;;;;;;;2.70;2.40;;;;;;;11.02;73.65;99083.63;4121599;28;21424;-85
2022/04/16 01:06:15;;;;;;;2.80;2.50;;;;;;;10.94;74.42;99081.41;4120062;28;20641;-86
2022/04/16 01:08:20;;;;;;;2.70;2.43;;;;;;;10.89;73.85;99080.00;4121797;28;20638;-86
2022/04/16 01:10:26;;;;;;;3.00;2.60;;;;;;;10.87;74.31;99079.25;4122105;28;21190;-86
2022/04/16 01:12:32;;;;;;;2.80;2.50;;;;;;;10.87;74.56;99082.69;4136461;28;21258;-86
2022/04/16 01:14:38;;;;;;;5.33;3.20;;;;;;;10.88;74.35;99087.00;4123319;28;20662;-86
2022/04/16 01:16:42;;;;;;;3.77;2.93;;;;;;;10.80;74.35;99078.72;4121910;28;20646;-86
2022/04/16 01:18:47;;;;;;;3.37;2.80;;;;;;;10.73;74.83;99092.16;4137011;28;21240;-86
2022/04/16 01:20:51;;;;;;;4.40;2.53;;;;;;;10.67;74.85;99092.50;4127271;28;20666;-86
2022/04/16 01:22:56;;;;;;;3.60;2.97;;;;;;;10.60;74.77;99093.75;4122379;28;22905;-86
2022/04/16 01:25:00;;;;;;;3.37;2.70;;;;;;;10.49;75.50;99103.06;4124583;28;20643;-86
2022/04/16 01:27:09;;;;;;;3.13;2.70;;;;;;;10.44;74.42;99099.84;4105563;28;20637;-86
2022/04/16 01:29:15;;;;;;;3.10;2.80;;;;;;;10.38;74.22;99103.59;4138613;28;20644;-86
2022/04/16 01:31:18;;;;;;;4.30;3.47;;;;;;;10.24;74.72;99102.63;4104554;28;20642;-86
2022/04/16 01:33:22;;;;;;;4.13;3.73;;;;;;;10.15;74.58;99105.72;4124624;28;20654;-86
2022/04/16 01:35:26;;;;;;;3.97;3.57;;;;;;;10.10;74.84;99107.72;4123549;28;21229;-86
2022/04/16 01:37:33;;;;;;;3.90;3.60;;;;;;;10.03;74.54;99119.34;4124343;28;20671;-86
2022/04/16 01:39:38;;;;;;;3.60;3.30;;;;;;;9.93;76.00;99118.09;4127589;28;20692;-86
2022/04/16 01:41:42;;;;;;;3.80;3.13;;;;;;;9.92;76.16;99115.53;4126703;28;20637;-86
2022/04/16 01:43:45;;;;;;;3.20;2.90;;;;;;;9.88;75.44;99108.81;4128513;28;20643;-86
2022/04/16 01:45:49;;;;;;;3.57;3.17;;;;;;;9.91;76.50;99112.09;4107949;28;20629;-86
2022/04/16 01:47:53;;;;;;;3.50;3.10;;;;;;;9.89;76.69;99106.13;4126653;28;20637;-86
2022/04/16 01:49:57;;;;;;;3.00;2.67;;;;;;;9.88;76.26;99116.63;4107812;28;20736;-86
2022/04/16 01:52:00;;;;;;;3.57;2.60;;;;;;;9.84;76.99;99100.28;4109392;28;20657;-86
2022/04/16 01:54:04;;;;;;;3.23;2.80;;;;;;;9.87;76.45;99117.53;4139117;28;20668;-86
2022/04/16 01:56:09;;;;;;;4.80;3.00;;;;;;;9.83;77.16;99109.94;4107045;28;21328;-86
2022/04/16 01:58:13;;;;;;;4.00;3.03;;;;;;;9.82;77.32;99122.16;4123174;28;20737;-85
2022/04/16 02:00:19;;;;;;;3.50;2.70;;;;;;;9.79;77.01;99116.22;4142561;28;20673;-86
2022/04/16 02:02:23;;;;;;;3.50;2.90;;;;;;;9.67;77.04;99122.06;4126013;28;20731;-86
2022/04/16 02:04:26;;;;;;;3.20;2.87;;;;;;;9.56;76.69;99108.69;4107125;28;20674;-86
2022/04/16 02:06:29;;;;;;;4.63;3.43;;;;;;;9.51;77.68;99113.28;4123411;28;20743;-86
2022/04/16 02:08:33;;;;;;;3.83;3.40;;;;;;;9.48;78.31;99110.81;4124621;28;20682;-86
2022/04/16 02:10:36;;;;;;;3.53;3.07;;;;;;;9.44;78.64;99109.25;4123681;28;20629;-86
2022/04/16 02:12:41;;;;;;;3.73;3.43;;;;;;;9.43;78.47;99110.19;4124877;28;20670;-85
2022/04/16 02:14:44;;;;;;;6.40;3.20;;;;;;;9.46;77.94;99104.84;4123979;28;20680;-86
2022/04/16 02:16:48;;;;;;;3.10;2.80;;;;;;;9.42;77.94;99113.72;4117820;28;20637;-86
2022/04/16 02:18:51;;;;;;;3.30;3.00;;;;;;;9.41;78.51;99112.00;4121486;28;21186;-86
2022/04/16 02:20:55;;;;;;;4.40;3.60;;;;;;;9.39;79.55;99109.47;4124156;28;20635;-86
2022/04/16 02:22:58;;;;;;;3.50;3.20;;;;;;;9.31;78.93;99115.97;4123860;28;20672;-86
2022/04/16 02:25:05;;;;;;;3.20;2.90;;;;;;;9.25;78.20;99105.84;4108854;28;20665;-86
2022/04/16 02:27:08;;;;;;;3.00;2.60;;;;;;;9.22;79.56;99112.97;4129842;28;20632;-86
2022/04/16 02:29:13;;;;;;;4.67;3.47;;;;;;;9.19;80.07;99103.53;4140344;28;20645;-86
2022/04/16 02:31:17;;;;;;;3.33;2.77;;;;;;;9.19;79.78;99105.31;4126456;28;20645;-86
2022/04/16 02:33:21;;;;;;;3.27;2.80;;;;;;;9.19;79.67;99100.09;4122768;28;20666;-86
2022/04/16 02:35:26;;;;;;;4.30;3.47;;;;;;;9.17;78.76;99107.97;4137023;28;20623;-86
2022/04/16 02:37:29;;;;;;;3.90;3.20;;;;;;;9.16;79.37;99111.50;4105815;28;20639;-86
2022/04/16 02:39:33;;;;;;;3.30;3.00;;;;;;;9.17;80.74;99110.59;4122013;28;21285;-86
2022/04/16 02:41:36;;;;;;;3.83;2.93;;;;;;;9.15;80.19;99114.16;4106503;28;20657;-86
2022/04/16 02:43:39;;;;;;;4.63;2.80;;;;;;;9.17;79.51;99109.72;4120276;28;21008;-86
2022/04/16 02:48:07;;;;;;;4.77;3.30;;;;;;;9.17;80.08;99115.78;4120861;28;20726;-86
2022/04/16 02:50:12;;;;;;;4.20;3.17;;;;;;;9.17;79.21;99118.38;4122884;28;20710;-86
2022/04/16 02:52:15;;;;;;;3.90;3.03;;;;;;;9.07;80.10;99114.50;4120371;28;20634;-86
2022/04/16 02:54:18;;;;;;;2.93;2.63;;;;;;;8.96;78.91;99124.56;4106207;28;20673;-86
2022/04/16 02:56:21;;;;;;;3.27;2.77;;;;;;;8.92;79.84;99118.75;4122055;28;20644;-85
2022/04/16 02:58:25;;;;;;;5.07;3.23;;;;;;;8.88;80.43;99120.63;4122563;28;20745;-86
2022/04/16 03:00:28;;;;;;;3.53;2.83;;;;;;;8.88;80.19;99119.78;4122748;28;20643;-86
2022/04/16 03:02:33;;;;;;;3.70;3.17;;;;;;;8.85;80.87;99114.72;4122162;28;20663;-86
2022/04/16 03:04:37;;;;;;;4.20;2.80;;;;;;;8.83;79.87;99116.56;4135476;28;20692;-86
2022/04/16 03:06:40;;;;;;;3.53;2.83;;;;;;;8.83;79.58;99109.59;4119246;28;20636;-85
2022/04/16 03:08:44;;;;;;;3.63;2.90;;;;;;;8.76;79.86;99113.38;4122486;28;20642;-86
2022/04/16 03:10:47;;;;;;;4.90;3.00;;;;;;;8.68;80.10;99114.63;4120761;28;20675;-86
2022/04/16 03:12:52;;;;;;;3.80;3.20;;;;;;;8.64;81.62;99120.88;4122446;28;20631;-86
2022/04/16 03:17:33;;;;;;;5.30;3.00;;;;;;;8.59;81.40;99118.47;4125490;28;21246;-86
2022/04/16 03:19:38;;;;;;;4.50;3.10;;;;;;;8.58;81.39;99121.13;4120446;28;21340;-86
2022/04/16 03:21:42;;;;;;;3.85;3.40;;;;;;;8.57;81.75;99122.06;4120819;28;21296;-85
2022/04/16 03:23:45;;;;;;;3.93;3.10;;;;;;;8.60;80.98;99120.19;4120706;28;20205;-86
2022/04/16 03:25:49;;;;;;;3.33;2.87;;;;;;;8.60;80.26;99103.72;4125562;28;20631;-85
2022/04/16 03:27:52;;;;;;;5.10;2.97;;;;;;;8.57;82.10;99119.47;4120264;28;20636;-85
2022/04/16 03:29:55;;;;;;;4.00;2.97;;;;;;;8.58;81.90;99121.97;4122749;28;21417;-86
2022/04/16 03:31:59;;;;;;;3.20;2.80;;;;;;;8.53;80.73;99118.75;4108502;28;20703;-86
2022/04/16 03:34:02;;;;;;;4.17;3.70;;;;;;;8.52;81.70;99122.28;4106095;28;20639;-85
2022/04/16 03:36:07;;;;;;;4.23;3.83;;;;;;;8.47;82.51;99113.81;4136192;28;20634;-86
2022/04/16 03:38:11;;;;;;;5.57;3.60;;;;;;;8.49;82.54;99117.22;4138194;28;20663;-86
2022/04/16 03:40:20;;;;;;;4.00;3.40;;;;;;;8.50;81.96;99113.69;4136072;28;20702;-86
2022/04/16 03:42:23;;;;;;;3.50;2.97;;;;;;;8.52;81.73;99111.00;4121173;28;20623;-85
2022/04/16 03:44:26;;;;;;;7.70;3.23;;;;;;;8.55;81.37;99116.06;4123263;28;20663;-85
2022/04/16 03:46:30;;;;;;;3.43;3.13;;;;;;;8.53;81.61;99108.34;4120175;28;20627;-86
2022/04/16 03:48:33;;;;;;;4.20;3.63;;;;;;;8.54;81.72;99115.25;4122865;28;20706;-86
2022/04/16 03:50:37;;;;;;;3.70;2.93;;;;;;;8.49;82.76;99117.22;4120791;28;20742;-86
2022/04/16 03:52:42;;;;;;;3.27;2.97;;;;;;;8.43;82.19;99120.97;4118275;28;20663;-85
2022/04/16 04:01:48;;;;;;;4.50;3.03;;;;;;;8.39;82.98;99133.28;4105192;28;20657;-86
2022/04/16 04:03:51;;;;;;;4.35;3.22;;;;;;;8.40;83.51;99131.50;4124638;28;20636;-86
2022/04/16 04:05:56;;;;;;;3.37;3.07;;;;;;;8.41;82.83;99133.19;4122056;28;20686;-84
2022/04/16 04:08:01;;;;;;;4.70;3.27;;;;;;;8.43;82.51;99134.81;4122779;28;20624;-85
2022/04/16 04:10:05;;;;;;;3.40;3.10;;;;;;;8.43;83.33;99134.81;4120327;28;20713;-86
2022/04/16 04:12:10;;;;;;;3.53;2.80;;;;;;;8.42;82.79;99133.13;4109906;28;20641;-86
2022/04/16 04:14:13;;;;;;;3.33;2.90;;;;;;;8.46;83.50;99137.28;4126682;28;20722;-86
2022/04/16 04:16:19;;;;;;;4.43;3.40;;;;;;;8.46;82.57;99147.66;4124889;28;20637;-85
2022/04/16 04:18:24;;;;;;;4.50;3.20;;;;;;;8.43;82.35;99140.00;4121837;28;20635;-86
2022/04/16 04:20:28;;;;;;;3.57;2.87;;;;;;;8.42;84.39;99146.13;4121124;28;20639;-86
2022/04/16 04:22:31;;;;;;;4.10;3.43;;;;;;;8.43;84.74;99140.00;4103609;28;20641;-85
2022/04/16 04:24:37;;;;;;;3.70;3.30;;;;;;;8.45;84.81;99149.44;4105963;28;20643;-86
2022/04/16 04:26:40;;;;;;;5.60;3.60;;;;;;;8.48;84.31;99146.69;4118547;28;20664;-85
2022/04/16 04:28:43;;;;;;;4.83;4.10;;;;;;;8.50;82.82;99144.03;4123054;28;20695;-86
2022/04/16 04:30:47;;;;;;;4.30;3.90;;;;;;;8.52;82.97;99144.81;4135655;28;20702;-86
2022/04/16 04:32:50;;;;;;;5.17;3.43;;;;;;;8.52;83.66;99153.47;4122403;28;20643;-86
2022/04/16 04:34:53;;;;;;;4.00;3.23;;;;;;;8.52;83.66;99153.47;4104713;28;21179;-86
2022/04/16 04:36:57;;;;;;;5.63;3.60;;;;;;;8.54;84.76;99143.00;4118974;28;20640;-85
2022/04/16 04:39:00;;;;;;;4.23;3.57;;;;;;;8.53;84.05;99142.13;4123800;28;20727;-86
2022/04/16 04:41:07;;;;;;;3.77;3.00;;;;;;;8.54;85.50;99143.00;4136936;28;20771;-85
2022/04/16 04:43:10;;;;;;;3.42;2.97;;;;;;;8.56;84.52;99148.97;4122021;28;20667;-85
2022/04/16 04:45:15;;;;;;;4.10;3.53;;;;;;;8.64;85.36;99154.69;4121916;28;20224;-85
2022/04/16 04:47:18;;;;;;;5.13;3.73;;;;;;;8.63;83.08;99139.97;4104825;28;20691;-85
2022/04/16 04:49:21;;;;;;;4.77;3.80;;;;;;;8.66;83.47;99145.91;4121897;28;20670;-86
2022/04/16 04:51:25;;;;;;;4.90;4.10;;;;;;;8.68;84.41;99146.69;4122631;28;20634;-85
2022/04/16 04:53:28;;;;;;;4.60;3.80;;;;;;;8.74;84.12;99148.16;4131076;28;20674;-85
2022/04/16 04:55:31;;;;;;;4.00;3.60;;;;;;;8.77;84.94;99148.88;4135992;28;20696;-86
2022/04/16 04:57:36;;;;;;;3.90;3.53;;;;;;;8.81;84.28;99152.16;4119218;28;20734;-86
2022/04/16 04:59:39;;;;;;;4.70;3.93;;;;;;;8.86;83.75;99160.63;4120502;28;20759;-86
2022/04/16 05:01:42;;;;;;;5.40;4.30;;;;;;;8.90;83.79;99159.56;4135560;28;20639;-86
2022/04/16 05:03:45;;;;;;;4.70;4.20;;;;;;;8.89;83.65;99157.91;4103263;28;20703;-85
2022/04/16 05:05:49;;;;;;;5.68;4.20;;;;;;;8.90;84.74;99162.16;4122845;28;20659;-86
2022/04/16 05:07:52;;;;;;;5.20;4.70;;;;;;;8.94;83.97;99164.56;4120807;28;20212;-86
2022/04/16 05:09:55;;;;;;;6.30;5.00;;;;;;;8.95;83.88;99166.25;4119067;28;20682;-85
2022/04/16 05:11:59;;;;;;;5.43;4.70;;;;;;;8.97;84.43;99173.06;4124992;28;20671;-85
2022/04/16 05:14:03;;;;;;;8.77;5.53;;;;;;;8.99;85.23;99179.06;4124031;28;20637;-85
2022/04/16 05:16:07;;;;;;;5.83;5.23;;;;;;;8.99;85.17;99173.88;4123899;28;20623;-86
2022/04/16 05:18:10;;;;;;;5.33;4.30;;;;;;;9.01;85.76;99179.00;4120869;28;20641;-85
2022/04/16 05:20:14;;;;;;;6.28;4.05;;;;;;;9.03;86.46;99175.41;4108608;28;20627;-85
2022/04/16 05:22:17;;;;;;;4.90;4.10;;;;;;;9.05;85.91;99171.00;4111416;28;20223;-85
2022/04/16 05:24:20;;;;;;;4.95;3.88;;;;;;;9.09;86.18;99177.72;4106729;28;20666;-86
2022/04/16 05:26:23;;;;;;;6.07;4.17;;;;;;;9.12;85.94;99177.59;4122466;28;20239;-86
2022/04/16 05:28:27;;;;;;;4.80;3.83;;;;;;;9.15;85.93;99174.84;4138134;28;21053;-85
2022/04/16 05:30:37;;;;;;;9.27;6.10;;;;;;;9.17;85.45;99172.16;4138547;28;20631;-86
2022/04/16 05:32:42;;;;;;;6.00;5.40;;;;;;;9.23;86.08;99182.31;4127124;28;20635;-86
2022/04/16 05:34:45;;;;;;;6.23;5.63;;;;;;;9.29;85.11;99185.50;4123269;28;21240;-85
2022/04/16 05:36:49;;;;;;;6.20;4.80;;;;;;;9.33;84.62;99176.63;4124383;28;20636;-85
2022/04/16 05:38:53;;;;;;;5.23;4.50;;;;;;;9.35;84.59;99187.81;4123078;28;22275;-85
2022/04/16 05:40:56;;;;;;;4.77;3.90;;;;;;;9.41;84.42;99182.31;4127885;28;20637;-86
2022/04/16 05:42:59;;;;;;;5.97;4.70;;;;;;;9.45;84.19;99189.06;4128277;28;20696;-85
2022/04/16 05:45:04;;;;;;;5.80;4.50;;;;;;;9.47;84.60;99190.69;4131265;28;20726;-85
2022/04/16 05:47:09;;;;;;;4.53;4.10;;;;;;;9.52;85.04;99190.47;4145611;28;21295;-86
2022/04/16 05:49:12;;;;;;;5.53;4.53;;;;;;;9.54;84.39;99191.25;4128542;28;21250;-86
2022/04/16 05:51:16;;;;;;;6.93;4.80;;;;;;;9.57;84.75;99194.53;4110629;28;20756;-86
2022/04/16 05:53:23;;;;;;;5.33;4.83;;;;;;;9.67;84.86;99202.78;4127852;28;21367;-86
2022/04/16 05:55:26;;;;;;;5.23;4.73;;;;;;;9.73;84.60;99200.72;4144102;28;22960;-85
2022/04/16 05:57:30;;;;;;;5.10;4.53;;;;;;;9.75;83.25;99195.44;4123943;28;20635;-85
2022/04/16 05:59:33;;;;;;;5.70;5.07;;;;;;;9.84;83.44;99195.84;4136331;28;20627;-85
2022/04/16 06:01:37;;;;;;;5.90;4.53;;;;;;;9.91;83.81;99198.09;4138884;28;20752;-86
2022/04/16 06:03:42;;;;;;;5.70;4.73;;;;;;;9.99;83.58;99195.97;4139423;28;20655;-86
2022/04/16 06:05:46;;;;;;;5.90;4.50;;;;;;;10.06;83.82;99199.16;4124647;28;21537;-86
2022/04/16 06:07:49;;;;;;;4.97;4.37;;;;;;;10.12;84.18;99202.31;4127321;28;20685;-86
2022/04/16 06:09:52;;;;;;;6.17;4.80;;;;;;;10.22;83.47;99213.94;4124054;28;21312;-86
2022/04/16 06:12:02;;;;;;;5.93;4.93;;;;;;;10.28;83.47;99211.03;4131343;28;20615;-86
2022/04/16 06:14:05;;;;;;;6.97;6.30;;;;;;;10.35;85.12;99210.66;4127170;28;20731;-86
2022/04/16 06:16:09;;;;;;;7.30;5.20;;;;;;;10.39;85.38;99214.81;4128281;28;20728;-86
2022/04/16 06:18:12;;;;;;;6.07;5.03;;;;;;;10.42;85.10;99217.28;4110243;28;20642;-86
2022/04/16 06:20:17;;;;;;;8.30;6.50;;;;;;;10.47;84.21;99222.25;4129345;28;20681;-86
2022/04/16 06:22:21;;;;;;;13.30;9.70;;;;;;;10.50;83.08;99222.94;4122578;28;20625;-86
2022/04/16 06:24:24;;;;;;;9.67;7.80;;;;;;;10.51;82.90;99221.19;4140304;28;20636;-85
2022/04/16 06:26:28;;;;;;;8.23;6.33;;;;;;;10.53;82.32;99230.63;4128135;28;20650;-85
2022/04/16 06:28:31;;;;;;;6.70;5.93;;;;;;;10.61;82.28;99228.47;4125408;28;21287;-85
2022/04/16 06:30:35;;;;;;;7.47;6.07;;;;;;;10.63;82.91;99225.78;4142904;28;21090;-85
2022/04/16 06:32:39;;;;;;;6.00;5.00;;;;;;;10.68;82.82;99229.03;4123864;28;20642;-86
2022/04/16 06:34:42;;;;;;;7.13;5.83;;;;;;;10.73;82.27;99227.84;4125090;28;20665;-85
2022/04/16 06:36:47;;;;;;;7.27;6.23;;;;;;;10.79;81.36;99237.97;4122561;28;22273;-86
2022/04/16 06:38:51;;;;;;;6.17;5.00;;;;;;;10.86;80.76;99224.53;4123700;28;20804;-86
2022/04/16 06:40:54;;;;;;;7.10;5.50;;;;;;;10.96;80.93;99224.91;4125265;28;20632;-85
2022/04/16 06:42:58;;;;;;;8.63;6.83;;;;;;;11.08;81.00;99224.25;4127890;28;20640;-85
2022/04/16 06:45:07;;;;;;;7.57;6.17;;;;;;;11.14;79.53;99213.50;4110630;28;20997;-85
2022/04/16 06:47:10;;;;;;;8.37;5.60;;;;;;;11.19;78.87;99222.78;4122347;28;20650;-85
2022/04/16 06:49:14;;;;;;;7.00;4.77;;;;;;;11.23;78.57;99232.16;4122852;28;20631;-85
2022/04/16 06:51:17;;;;;;;6.50;4.93;;;;;;;11.29;78.95;99232.66;4138918;28;20715;-85
2022/04/16 06:53:22;;;;;;;7.57;5.73;;;;;;;11.36;78.33;99233.19;4138328;28;21537;-86
2022/04/16 06:55:25;;;;;;;6.73;5.27;;;;;;;11.41;77.85;99236.38;4123087;28;20655;-86
2022/04/16 06:57:28;;;;;;;7.40;6.03;;;;;;;11.46;78.65;99237.84;4122722;28;21034;-85
2022/04/16 06:59:38;;;;;;;6.20;5.23;;;;;;;11.51;77.96;99238.44;4123013;28;21215;-85
2022/04/16 07:01:41;;;;;;;7.80;5.93;;;;;;;11.61;78.26;99244.06;4113766;28;20640;-85
2022/04/16 07:03:44;;;;;;;8.43;5.40;;;;;;;11.68;78.24;99235.78;4120902;28;20670;-85
2022/04/16 07:05:48;;;;;;;7.93;6.07;;;;;;;11.73;77.62;99239.00;4121715;28;21001;-86
2022/04/16 07:07:51;;;;;;;9.50;6.00;;;;;;;11.73;78.41;99244.22;4140982;28;21223;-86
2022/04/16 07:09:56;;;;;;;6.37;5.53;;;;;;;11.72;77.25;99244.31;4139993;28;20723;-86
2022/04/16 07:12:01;;;;;;;8.40;6.13;;;;;;;11.73;76.93;99240.75;4122649;28;20624;-85
2022/04/16 07:14:04;;;;;;;9.00;6.13;;;;;;;11.66;77.13;99235.00;4125195;28;21199;-84
2022/04/16 07:16:08;;;;;;;7.90;6.33;;;;;;;11.66;76.92;99234.19;4119578;28;20717;-85
2022/04/16 07:18:11;;;;;;;7.90;7.03;;;;;;;11.60;77.05;99224.91;4119051;28;20651;-84
2022/04/16 07:20:14;;;;;;;8.43;6.47;;;;;;;11.70;77.75;99240.91;4125956;28;20666;-84
2022/04/16 07:22:19;;;;;;;8.00;6.37;;;;;;;11.74;78.11;99245.88;4135500;28;20742;-85
2022/04/16 07:24:22;;;;;;;8.13;6.13;;;;;;;11.67;78.46;99252.41;4125205;28;21102;-84
2022/04/16 07:26:27;;;;;;;8.20;6.23;;;;;;;11.60;77.41;99247.56;4122960;28;20987;-84
2022/04/16 07:28:33;;;;;;;8.50;6.60;;;;;;;11.58;77.78;99246.81;4124092;28;20654;-84
2022/04/16 07:30:36;;;;;;;8.63;6.30;;;;;;;11.53;77.73;99249.69;4128860;28;20636;-84
2022/04/16 07:32:39;;;;;;;8.57;6.03;;;;;;;11.51;78.80;99245.47;4129314;28;21075;-84
2022/04/16 07:34:42;;;;;;;7.67;6.53;;;;;;;11.57;78.13;99252.97;4107763;28;20642;-84
2022/04/16 07:36:46;;;;;;;8.90;6.00;;;;;;;11.48;76.55;99256.91;4127996;28;20684;-84
2022/04/16 07:38:50;;;;;;;9.53;7.17;;;;;;;11.46;78.31;99255.28;4130707;28;20639;-85
2022/04/16 07:40:54;;;;;;;9.13;7.73;;;;;;;11.41;78.25;99254.66;4129034;28;20630;-84
2022/04/16 07:42:59;;;;;;;9.57;7.63;;;;;;;11.38;78.48;99255.69;4122147;28;20677;-84
2022/04/16 07:45:02;;;;;;;10.60;7.57;;;;;;;11.28;77.36;99256.25;4144465;28;20634;-84
2022/04/16 07:47:06;;;;;;;11.80;7.57;;;;;;;11.33;78.23;99256.84;4126668;28;20659;-84
2022/04/16 07:49:12;;;;;;;11.10;7.80;;;;;;;11.35;78.84;99274.13;4127754;28;20705;-84
2022/04/16 07:51:15;;;;;;;10.00;7.77;;;;;;;11.33;78.40;99269.91;4128046;28;21019;-84
2022/04/16 07:53:18;;;;;;;10.93;7.80;;;;;;;11.41;78.84;99265.09;4141726;28;21092;-84
2022/04/16 07:55:22;;;;;;;11.00;8.70;;;;;;;11.59;77.65;99275.50;4127861;28;21271;-84
2022/04/16 07:57:25;;;;;;;10.80;8.80;;;;;;;11.57;77.22;99276.47;4126594;28;20638;-84
2022/04/16 07:59:30;;;;;;;13.23;9.30;;;;;;;11.55;78.13;99288.78;4122840;28;21239;-84
2022/04/16 08:01:33;;;;;;;12.17;9.20;;;;;;;11.47;76.71;99280.50;4121937;28;20677;-84
2022/04/16 08:03:37;;;;;;;15.70;9.13;;;;;;;11.54;77.13;99276.66;4142649;28;21036;-84
2022/04/16 08:05:40;;;;;;;13.53;10.33;;;;;;;11.56;77.41;99286.09;4144709;28;20701;-84
2022/04/16 08:07:44;;;;;;;14.50;10.53;;;;;;;11.34;76.92;99288.09;4144480;28;21254;-84
2022/04/16 08:09:47;;;;;;;13.50;9.80;;;;;;;11.39;78.13;99286.09;4110022;28;20691;-84
2022/04/16 08:11:50;;;;;;;13.97;10.50;;;;;;;11.55;77.44;99294.84;4128441;28;20646;-84
2022/04/16 08:13:55;;;;;;;13.57;10.20;;;;;;;11.68;78.59;99290.69;4129587;28;20628;-84
2022/04/16 08:16:00;;;;;;;13.23;11.33;;;;;;;11.60;77.46;99302.44;4136649;28;20637;-84
2022/04/16 08:18:03;;;;;;;13.50;10.83;;;;;;;11.55;76.84;99299.25;4110191;28;20634;-83
2022/04/16 08:20:08;;;;;;;15.50;11.13;;;;;;;11.58;78.44;99302.53;4121867;28;21165;-84
2022/04/16 08:22:17;;;;;;;14.50;11.20;;;;;;;11.59;78.87;99304.22;4121655;28;20942;-84
2022/04/16 08:24:38;;;;;;;15.80;10.93;;;;;;;11.64;77.22;99303.97;4120117;28;20617;-85
2022/04/16 08:26:42;;;;;;;14.53;10.73;;;;;;;11.49;77.41;99304.78;4141164;28;20627;-85
2022/04/16 08:28:45;;;;;;;14.57;10.27;;;;;;;11.50;78.70;99306.47;4121514;28;20656;-83
2022/04/16 08:30:50;;;;;;;14.03;10.17;;;;;;;11.58;77.92;99306.91;4135238;28;21211;-84
2022/04/16 08:32:54;;;;;;;15.73;11.20;;;;;;;11.59;78.21;99316.44;4120357;28;20638;-84
2022/04/16 08:34:58;;;;;;;16.30;10.43;;;;;;;11.50;77.73;99316.91;4135857;28;20720;-84
2022/04/16 08:37:01;;;;;;;16.17;11.80;;;;;;;11.38;78.29;99313.16;4126383;28;21192;-84
2022/04/16 08:39:04;;;;;;;18.00;10.80;;;;;;;11.47;78.55;99317.94;4134867;28;20749;-85
2022/04/16 08:41:10;;;;;;;15.53;10.87;;;;;;;11.51;78.62;99323.84;4136281;28;20637;-83
2022/04/16 08:43:14;;;;;;;14.13;10.97;;;;;;;11.50;78.14;99327.34;4121710;28;20716;-83
2022/04/16 08:45:17;;;;;;;14.50;10.30;;;;;;;11.57;78.94;99323.50;4104425;28;21252;-84
2022/04/16 08:47:20;;;;;;;13.67;10.53;;;;;;;11.63;76.82;99339.69;4120815;28;20647;-83
2022/04/16 08:49:26;;;;;;;13.77;10.00;;;;;;;11.53;77.91;99335.03;4118409;28;20641;-85
2022/04/16 08:51:30;;;;;;;14.47;11.10;;;;;;;11.59;78.00;99326.88;4107210;28;20669;-86
2022/04/16 08:53:33;;;;;;;13.90;10.57;;;;;;;11.65;76.17;99337.00;4121381;28;20689;-85
2022/04/16 08:55:37;;;;;;;14.33;10.70;;;;;;;11.51;76.80;99327.28;4106938;28;20681;-83
2022/04/16 08:57:41;;;;;;;15.20;9.87;;;;;;;11.69;77.72;99326.31;4122942;28;20735;-84
2022/04/16 08:59:50;;;;;;;13.70;10.73;;;;;;;11.84;75.61;99318.50;4123387;28;20676;-84
2022/04/16 09:01:54;;;;;;;14.73;10.73;;;;;;;11.91;76.07;99322.47;4121033;28;21207;-83
2022/04/16 09:03:58;;;;;;;13.47;10.80;;;;;;;11.89;75.46;99337.41;4120810;28;20683;-84
2022/04/16 09:06:04;;;;;;;14.07;10.30;;;;;;;11.87;76.71;99323.56;4122908;28;20697;-84
2022/04/16 09:08:08;;;;;;;16.30;11.17;;;;;;;11.94;75.90;99337.16;4122376;28;21058;-83
2022/04/16 09:10:12;;;;;;;12.60;10.20;;;;;;;12.12;74.59;99316.09;4120235;28;20639;-84
2022/04/16 09:12:18;;;;;;;15.30;11.67;;;;;;;12.20;74.97;99326.97;4141495;28;20636;-83
2022/04/16 09:14:33;;;;;;;14.17;11.23;;;;;;;12.39;74.10;99327.66;4127350;28;21037;-83
2022/04/16 09:16:38;;;;;;;16.60;11.57;;;;;;;12.35;73.68;99332.19;4136710;28;20646;-83
2022/04/16 09:18:50;;;;;;;15.67;11.13;;;;;;;12.26;74.00;99331.84;4123704;28;24185;-83
2022/04/16 09:20:53;;;;;;;14.00;10.27;;;;;;;12.26;72.86;99337.09;4116736;28;20649;-84
2022/04/16 09:22:58;;;;;;;13.10;9.87;;;;;;;12.22;72.90;99330.31;4131642;28;20980;-83
2022/04/16 09:25:01;;;;;;;13.83;10.93;;;;;;;12.34;72.68;99343.59;4133140;28;21132;-83
2022/04/16 09:27:04;;;;;;;13.47;9.73;;;;;;;12.54;72.94;99337.22;4116319;28;20624;-81
2022/04/16 09:29:08;;;;;;;13.47;10.23;;;;;;;12.45;72.48;99341.22;4119345;28;20771;-81
2022/04/16 09:31:12;;;;;;;14.40;10.90;;;;;;;12.52;71.62;99328.63;4137601;28;20664;-81
2022/04/16 09:33:15;;;;;;;13.43;9.60;;;;;;;12.62;72.88;99332.44;4119637;28;21281;-84
2022/04/16 09:35:30;;;;;;;12.40;9.70;;;;;;;12.63;70.97;99339.31;4136255;28;20641;-85
2022/04/16 09:37:51;;;;;;;13.00;9.47;;;;;;;12.76;70.64;99331.56;4134769;28;21033;-85
2022/04/16 09:39:56;;;;;;;14.10;10.53;;;;;;;12.72;69.65;99324.78;4113799;28;20734;-85
2022/04/16 09:42:00;;;;;;;12.70;9.70;;;;;;;12.68;70.48;99337.31;4114903;28;20642;-84
2022/04/16 09:44:04;;;;;;;13.70;9.37;;;;;;;12.76;70.83;99334.19;4122681;28;21220;-85
2022/04/16 09:46:11;;;;;;;10.50;8.27;;;;;;;12.96;69.65;99336.50;4118646;28;20641;-85
2022/04/16 09:48:15;;;;;;;11.30;8.60;;;;;;;13.17;70.44;99340.50;4122108;28;20661;-85
2022/04/16 09:50:20;;;;;;;12.67;8.90;;;;;;;13.30;69.84;99337.03;4118797;28;21046;-85
2022/04/16 09:52:25;;;;;;;13.73;9.50;;;;;;;13.26;68.89;99337.31;4120673;28;20714;-87
2022/04/16 09:54:29;;;;;;;11.50;8.60;;;;;;;13.24;68.00;99331.34;4119465;28;20677;-87
2022/04/16 09:56:35;;;;;;;12.40;9.10;;;;;;;13.25;68.43;99335.66;4117245;28;20662;-85
2022/04/16 09:58:40;;;;;;;11.27;8.17;;;;;;;13.24;67.06;99334.81;4124606;28;20723;-84